Time;durP1;ratioP1;P1;durP2;ratioP2;P2;SDS_P1;SDS_P2;PMS_P1;PMS_P2;Temp;Humidity;BMP_temperature;BMP_pressure;BME280_temperature;BME280_humidity;BME280_pressure;Samples;Min_cycle;Max_cycle;Signal;HPM_P1;HPM_P2
2023/06/21 00:00:47;;;;;;;;;;;19.80;99.90;;;;;;5115165;28;19914;-43
2023/06/21 00:03:13;;;;;;;;;;;19.80;99.90;;;;;;5114043;28;19965;-43
2023/06/21 00:05:38;;;;;;;;;;;19.80;99.90;;;;;;5114934;28;19912;-44
2023/06/21 00:08:04;;;;;;;;;;;19.80;99.90;;;;;;5114874;28;19915;-42
2023/06/21 00:10:30;;;;;;;;;;;19.70;99.90;;;;;;5114113;28;19999;-43
2023/06/21 00:12:56;;;;;;;;;;;19.70;99.90;;;;;;5114865;28;19990;-43
2023/06/21 00:15:22;;;;;;;;;;;19.70;99.90;;;;;;5114071;28;19912;-43
2023/06/21 00:17:48;;;;;;;;;;;19.70;99.90;;;;;;5113899;28;19914;-43
2023/06/21 00:20:13;;;;;;;;;;;19.70;99.90;;;;;;5114595;28;19912;-43
2023/06/21 00:22:40;;;;;;;;;;;19.70;99.90;;;;;;5114604;28;19911;-43
2023/06/21 00:25:05;;;;;;;;;;;19.70;99.90;;;;;;5113814;28;19907;-44
2023/06/21 00:27:31;;;;;;;;;;;19.70;99.90;;;;;;5114466;28;20488;-42
2023/06/21 00:29:56;;;;;;;;;;;19.70;99.90;;;;;;5114444;28;19908;-44
2023/06/21 00:32:22;;;;;;;;;;;19.70;99.90;;;;;;5113539;28;19916;-44
2023/06/21 00:34:47;;;;;;;;;;;19.70;99.90;;;;;;5114408;28;19907;-43
2023/06/21 00:37:13;;;;;;;;;;;19.70;99.90;;;;;;5113596;28;19923;-46
2023/06/21 00:39:39;;;;;;;;;;;19.70;99.90;;;;;;5114049;28;20095;-43
2023/06/21 00:42:05;;;;;;;;;;;19.60;99.90;;;;;;5114178;28;19907;-43
2023/06/21 00:44:31;;;;;;;;;;;19.60;99.90;;;;;;5113099;28;19908;-43
2023/06/21 00:46:56;;;;;;;;;;;19.60;99.90;;;;;;5113829;28;20335;-43
2023/06/21 00:49:23;;;;;;;;;;;19.60;99.90;;;;;;5114248;28;20366;-42
2023/06/21 00:51:49;;;;;;;;;;;19.60;99.90;;;;;;5113386;28;19914;-43
2023/06/21 00:54:17;;;;;;;;;;;19.50;99.90;;;;;;5113854;28;19911;-43
2023/06/21 00:56:43;;;;;;;;;;;19.50;99.90;;;;;;5114084;28;20017;-43
2023/06/21 00:59:09;;;;;;;;;;;19.50;99.90;;;;;;5113178;28;19921;-44
2023/06/21 01:01:37;;;;;;;;;;;19.50;99.90;;;;;;5113766;28;19908;-43
2023/06/21 01:04:08;;;;;;;;;;;19.50;99.90;;;;;;5113824;28;19970;-43
2023/06/21 01:06:46;;;;;;;;;;;19.40;99.90;;;;;;5113076;28;19908;-43
2023/06/21 01:09:26;;;;;;;;;;;19.40;99.90;;;;;;5113698;28;20010;-43
2023/06/21 01:11:53;;;;;;;;;;;19.40;99.90;;;;;;5113608;28;20362;-42
2023/06/21 01:14:27;;;;;;;;;;;19.40;99.90;;;;;;5112868;28;19918;-43
2023/06/21 01:16:54;;;;;;;;;;;19.40;99.90;;;;;;5104856;28;19919;-44
2023/06/21 01:19:29;;;;;;;;;;;19.40;99.90;;;;;;5113413;28;19918;-44
2023/06/21 01:21:57;;;;;;;;;;;19.30;99.90;;;;;;5113816;28;19908;-44
2023/06/21 01:24:45;;;;;;;;;;;19.30;99.90;;;;;;5113402;28;19912;-42
2023/06/21 01:27:18;;;;;;;;;;;19.30;99.90;;;;;;5112031;28;19915;-42
2023/06/21 01:29:47;;;;;;;;;;;19.30;99.90;;;;;;5113509;28;19908;-43
2023/06/21 01:32:13;;;;;;;;;;;19.20;99.90;;;;;;5113552;28;19908;-43
2023/06/21 01:34:38;;;;;;;;;;;19.20;99.90;;;;;;5112530;28;19908;-45
2023/06/21 01:37:06;;;;;;;;;;;19.20;99.90;;;;;;5112831;28;19920;-43
2023/06/21 01:39:31;;;;;;;;;;;19.20;99.90;;;;;;5113437;28;19998;-43
2023/06/21 01:41:58;;;;;;;;;;;19.20;99.90;;;;;;5112588;28;20010;-42
2023/06/21 01:44:25;;;;;;;;;;;19.10;99.90;;;;;;5112790;28;19911;-43
2023/06/21 01:46:51;;;;;;;;;;;19.20;99.90;;;;;;5113192;28;20006;-43
2023/06/21 01:49:17;;;;;;;;;;;19.10;99.90;;;;;;5112177;28;19955;-43
2023/06/21 01:51:44;;;;;;;;;;;19.20;99.90;;;;;;5113224;28;19908;-43
2023/06/21 01:54:10;;;;;;;;;;;19.10;99.90;;;;;;5113116;28;19918;-43
2023/06/21 01:56:37;;;;;;;;;;;19.10;99.90;;;;;;5112399;28;20473;-44
2023/06/21 01:59:02;;;;;;;;;;;19.10;99.90;;;;;;5113100;28;19914;-42
2023/06/21 02:01:30;;;;;;;;;;;19.20;99.90;;;;;;5113203;28;19908;-43
2023/06/21 02:03:59;;;;;;;;;;;19.10;99.90;;;;;;5112266;28;20380;-43
2023/06/21 02:06:26;;;;;;;;;;;19.10;99.90;;;;;;5113013;28;20277;-43
2023/06/21 02:08:52;;;;;;;;;;;19.10;99.90;;;;;;5112295;28;19923;-43
2023/06/21 02:11:19;;;;;;;;;;;19.10;99.90;;;;;;5112888;28;20002;-43
2023/06/21 02:13:52;;;;;;;;;;;19.10;99.90;;;;;;5112677;28;20300;-43
2023/06/21 02:16:18;;;;;;;;;;;19.10;99.90;;;;;;5112043;28;19908;-42
2023/06/21 02:18:44;;;;;;;;;;;19.10;99.90;;;;;;5112878;28;19972;-44
2023/06/21 02:21:12;;;;;;;;;;;19.10;99.90;;;;;;5112896;28;20043;-42
2023/06/21 02:23:38;;;;;;;;;;;19.10;99.90;;;;;;5112014;28;20342;-43
2023/06/21 02:26:03;;;;;;;;;;;19.00;99.90;;;;;;5112821;28;19918;-43
2023/06/21 02:28:29;;;;;;;;;;;19.10;99.90;;;;;;5112823;28;20408;-44
2023/06/21 02:30:54;;;;;;;;;;;19.00;99.90;;;;;;5112020;28;19999;-44
2023/06/21 02:33:20;;;;;;;;;;;19.00;99.90;;;;;;5112771;28;19912;-43
2023/06/21 02:35:45;;;;;;;;;;;19.00;99.90;;;;;;5112856;28;20274;-42
2023/06/21 02:38:10;;;;;;;;;;;19.00;99.90;;;;;;5112115;28;20028;-42
2023/06/21 02:40:36;;;;;;;;;;;19.10;99.90;;;;;;5116741;28;19908;-43
2023/06/21 02:43:01;;;;;;;;;;;19.00;99.90;;;;;;5116310;28;19908;-44
2023/06/21 02:45:27;;;;;;;;;;;19.10;99.90;;;;;;5113249;28;19915;-43
2023/06/21 02:47:52;;;;;;;;;;;19.10;99.90;;;;;;5095991;28;20004;-44
2023/06/21 02:50:18;;;;;;;;;;;19.10;99.90;;;;;;5096017;28;20354;-44
2023/06/21 02:52:44;;;;;;;;;;;19.10;99.90;;;;;;5095120;28;19915;-43
2023/06/21 02:55:10;;;;;;;;;;;19.10;99.90;;;;;;5095930;28;19969;-43
2023/06/21 02:57:35;;;;;;;;;;;19.10;99.90;;;;;;5095866;28;19994;-43
2023/06/21 03:00:01;;;;;;;;;;;19.10;99.90;;;;;;5094996;28;19914;-43
2023/06/21 03:02:33;;;;;;;;;;;19.10;99.90;;;;;;5095685;28;19908;-42
2023/06/21 03:04:59;;;;;;;;;;;19.10;99.90;;;;;;5094938;28;20370;-44
2023/06/21 03:07:25;;;;;;;;;;;19.00;99.90;;;;;;5095418;28;19962;-43
2023/06/21 03:09:51;;;;;;;;;;;19.00;99.90;;;;;;5095650;28;19916;-45
2023/06/21 03:12:16;;;;;;;;;;;19.00;99.90;;;;;;5094867;28;20246;-45
2023/06/21 03:14:42;;;;;;;;;;;19.00;99.90;;;;;;5101804;28;20374;-44
2023/06/21 03:17:09;;;;;;;;;;;18.90;99.90;;;;;;5115892;28;20000;-43
2023/06/21 03:19:34;;;;;;;;;;;18.90;99.90;;;;;;5109711;28;19912;-45
2023/06/21 03:22:00;;;;;;;;;;;18.90;99.90;;;;;;5115489;28;20285;-46
2023/06/21 03:24:26;;;;;;;;;;;18.90;99.90;;;;;;5115353;28;19912;-43
2023/06/21 03:26:52;;;;;;;;;;;18.90;99.90;;;;;;5115263;28;19912;-44
2023/06/21 03:29:18;;;;;;;;;;;18.90;99.90;;;;;;5115488;28;19919;-43
2023/06/21 03:31:43;;;;;;;;;;;18.80;99.90;;;;;;5115506;28;19922;-43
2023/06/21 03:34:09;;;;;;;;;;;18.90;99.90;;;;;;5114436;28;20443;-44
2023/06/21 03:36:34;;;;;;;;;;;18.80;99.90;;;;;;5115562;28;19914;-42
2023/06/21 03:39:00;;;;;;;;;;;18.80;99.90;;;;;;5115125;28;19970;-43
2023/06/21 03:41:27;;;;;;;;;;;18.80;99.90;;;;;;5113961;28;20298;-43
2023/06/21 03:43:53;;;;;;;;;;;18.80;99.90;;;;;;5115310;28;19995;-44
2023/06/21 03:46:18;;;;;;;;;;;18.80;99.90;;;;;;5115357;28;20286;-42
2023/06/21 03:48:44;;;;;;;;;;;18.80;99.90;;;;;;5114273;28;20415;-44
2023/06/21 03:51:09;;;;;;;;;;;18.70;99.90;;;;;;5115063;28;19938;-43
2023/06/21 03:53:35;;;;;;;;;;;18.70;99.90;;;;;;5114755;28;19907;-43
2023/06/21 03:56:00;;;;;;;;;;;18.70;99.90;;;;;;5114258;28;19918;-42
2023/06/21 03:58:25;;;;;;;;;;;18.80;99.90;;;;;;5115126;28;19912;-42
2023/06/21 04:00:51;;;;;;;;;;;18.70;99.90;;;;;;5115057;28;19950;-43
2023/06/21 04:03:16;;;;;;;;;;;18.70;99.90;;;;;;5114298;28;19908;-43
2023/06/21 04:05:42;;;;;;;;;;;18.70;99.90;;;;;;5115126;28;19908;-43
2023/06/21 04:08:07;;;;;;;;;;;18.70;99.90;;;;;;5114809;28;20327;-44
2023/06/21 04:10:33;;;;;;;;;;;18.70;99.90;;;;;;5114135;28;19914;-43
2023/06/21 04:12:59;;;;;;;;;;;18.70;99.90;;;;;;5114707;28;19911;-42
2023/06/21 04:15:26;;;;;;;;;;;18.70;99.90;;;;;;5111574;28;19999;-44
2023/06/21 04:17:52;;;;;;;;;;;18.70;99.90;;;;;;5110067;28;19912;-43
2023/06/21 04:20:17;;;;;;;;;;;18.70;99.90;;;;;;5112869;28;19923;-43
2023/06/21 04:22:44;;;;;;;;;;;18.70;99.90;;;;;;5113391;28;19908;-44
2023/06/21 04:25:10;;;;;;;;;;;18.70;99.90;;;;;;5113783;28;20329;-45
2023/06/21 04:27:35;;;;;;;;;;;18.70;99.90;;;;;;5113302;28;19949;-43
2023/06/21 04:30:00;;;;;;;;;;;18.70;99.90;;;;;;5112177;28;19915;-43
2023/06/21 04:32:32;;;;;;;;;;;18.70;99.90;;;;;;5113878;28;19993;-45
2023/06/21 04:35:00;;;;;;;;;;;18.70;99.90;;;;;;5111651;28;19908;-44
2023/06/21 04:37:25;;;;;;;;;;;18.70;99.90;;;;;;5112666;28;19927;-43
2023/06/21 04:39:51;;;;;;;;;;;18.70;99.90;;;;;;5113665;28;19912;-44
2023/06/21 04:42:20;;;;;;;;;;;18.70;99.90;;;;;;5113731;28;19953;-43
2023/06/21 04:44:49;;;;;;;;;;;18.80;99.90;;;;;;5112914;28;19908;-43
2023/06/21 04:47:15;;;;;;;;;;;18.80;99.90;;;;;;5110719;28;19912;-43
2023/06/21 04:49:40;;;;;;;;;;;18.70;99.90;;;;;;5113364;28;20404;-42
2023/06/21 04:52:06;;;;;;;;;;;18.80;99.90;;;;;;5108386;28;19947;-43
2023/06/21 04:54:32;;;;;;;;;;;18.80;99.90;;;;;;5104242;28;20459;-43
2023/06/21 04:56:58;;;;;;;;;;;18.80;99.90;;;;;;5108776;28;19918;-42
2023/06/21 04:59:23;;;;;;;;;;;18.80;99.90;;;;;;5111756;28;19915;-43
2023/06/21 05:01:49;;;;;;;;;;;18.80;99.90;;;;;;5112297;28;19912;-43
2023/06/21 05:04:14;;;;;;;;;;;18.80;99.90;;;;;;5112916;28;20345;-42
2023/06/21 05:06:40;;;;;;;;;;;18.80;99.90;;;;;;5112496;28;19912;-43
2023/06/21 05:09:06;;;;;;;;;;;18.80;99.90;;;;;;5113117;28;19943;-43
2023/06/21 05:11:31;;;;;;;;;;;18.80;99.90;;;;;;5113126;28;19930;-42
2023/06/21 05:13:57;;;;;;;;;;;18.90;99.90;;;;;;5112915;28;20460;-42
2023/06/21 05:16:22;;;;;;;;;;;18.80;99.90;;;;;;5111018;28;19912;-43
2023/06/21 05:18:48;;;;;;;;;;;18.90;99.90;;;;;;5100750;28;20248;-42
2023/06/21 05:21:13;;;;;;;;;;;18.90;99.90;;;;;;5112420;28;19985;-42
2023/06/21 05:23:39;;;;;;;;;;;18.90;99.90;;;;;;5105061;28;19912;-43
2023/06/21 05:26:04;;;;;;;;;;;18.90;99.90;;;;;;5092211;28;20319;-43
2023/06/21 05:28:30;;;;;;;;;;;19.00;99.90;;;;;;5106592;28;20382;-43
2023/06/21 05:30:55;;;;;;;;;;;19.00;99.90;;;;;;5112795;28;19915;-43
2023/06/21 05:33:21;;;;;;;;;;;19.00;99.90;;;;;;5111422;28;19955;-43
2023/06/21 05:35:46;;;;;;;;;;;19.10;99.90;;;;;;5111092;28;19907;-43
2023/06/21 05:38:11;;;;;;;;;;;19.10;99.90;;;;;;5111550;28;19973;-42
2023/06/21 05:40:37;;;;;;;;;;;19.10;99.90;;;;;;5110511;28;20292;-44
2023/06/21 05:43:03;;;;;;;;;;;19.20;99.90;;;;;;5112349;28;19951;-42
2023/06/21 05:45:28;;;;;;;;;;;19.20;99.90;;;;;;5111786;28;20030;-43
2023/06/21 05:47:54;;;;;;;;;;;19.30;99.90;;;;;;5110967;28;19927;-43
2023/06/21 05:50:20;;;;;;;;;;;19.30;99.90;;;;;;5110108;28;19968;-44
2023/06/21 05:52:45;;;;;;;;;;;19.30;99.90;;;;;;5111520;28;19912;-43
2023/06/21 05:55:11;;;;;;;;;;;19.40;99.90;;;;;;5111150;28;19915;-43
2023/06/21 05:57:36;;;;;;;;;;;19.50;99.90;;;;;;5112572;28;20435;-43
2023/06/21 06:00:03;;;;;;;;;;;19.50;99.90;;;;;;5111497;28;19916;-43
2023/06/21 06:02:30;;;;;;;;;;;19.50;99.90;;;;;;5093102;28;19908;-43
2023/06/21 06:04:55;;;;;;;;;;;19.50;99.90;;;;;;5112173;28;20270;-43
2023/06/21 06:07:23;;;;;;;;;;;19.60;99.90;;;;;;5112266;28;20011;-43
2023/06/21 06:09:48;;;;;;;;;;;19.60;99.90;;;;;;5105546;28;20362;-44
2023/06/21 06:12:13;;;;;;;;;;;19.60;99.90;;;;;;5112608;28;20014;-42
2023/06/21 06:14:39;;;;;;;;;;;19.70;99.90;;;;;;5116099;28;19911;-43
2023/06/21 06:17:04;;;;;;;;;;;19.70;99.90;;;;;;5115203;28;19952;-44
2023/06/21 06:19:30;;;;;;;;;;;19.80;99.90;;;;;;5115098;28;19911;-43
2023/06/21 06:21:55;;;;;;;;;;;19.70;99.90;;;;;;5114293;28;19919;-43
2023/06/21 06:24:21;;;;;;;;;;;19.90;99.90;;;;;;5115945;28;20007;-43
2023/06/21 06:26:46;;;;;;;;;;;19.80;99.90;;;;;;5115797;28;19912;-45
2023/06/21 06:29:12;;;;;;;;;;;19.80;99.90;;;;;;5112598;28;19970;-43
2023/06/21 06:31:37;;;;;;;;;;;19.80;99.90;;;;;;5109926;28;19912;-43
2023/06/21 06:34:02;;;;;;;;;;;19.80;99.90;;;;;;5114810;28;19919;-43
2023/06/21 06:36:28;;;;;;;;;;;19.80;99.90;;;;;;5096949;28;19908;-43
2023/06/21 06:38:53;;;;;;;;;;;19.90;99.90;;;;;;5113066;28;19930;-44
2023/06/21 06:41:19;;;;;;;;;;;19.90;99.90;;;;;;5113344;28;20002;-43
2023/06/21 06:43:45;;;;;;;;;;;19.90;99.90;;;;;;5114206;28;19911;-43
2023/06/21 06:46:11;;;;;;;;;;;19.90;99.90;;;;;;5115182;28;19915;-43
2023/06/21 06:48:36;;;;;;;;;;;20.00;99.90;;;;;;5099478;28;19921;-45
2023/06/21 06:51:02;;;;;;;;;;;20.00;99.90;;;;;;5100707;28;19908;-44
2023/06/21 06:53:27;;;;;;;;;;;20.00;99.90;;;;;;5116150;28;19907;-44
2023/06/21 06:55:54;;;;;;;;;;;20.10;99.90;;;;;;5106818;28;19915;-44
2023/06/21 06:58:21;;;;;;;;;;;20.20;99.90;;;;;;5112238;27;19911;-43
2023/06/21 07:00:46;;;;;;;;;;;20.20;99.90;;;;;;5111028;28;19912;-43
2023/06/21 07:03:12;;;;;;;;;;;20.20;99.90;;;;;;5113187;28;19919;-43
2023/06/21 07:05:47;;;;;;;;;;;20.30;99.90;;;;;;5113320;28;19931;-43
2023/06/21 07:08:12;;;;;;;;;;;20.40;99.90;;;;;;5115749;28;19912;-43
2023/06/21 07:10:38;;;;;;;;;;;20.40;99.90;;;;;;5116764;28;20053;-44
2023/06/21 07:13:04;;;;;;;;;;;20.50;99.90;;;;;;5114918;28;19908;-43
2023/06/21 07:15:30;;;;;;;;;;;20.50;99.90;;;;;;5104746;28;19919;-43
2023/06/21 07:17:55;;;;;;;;;;;20.60;99.90;;;;;;5111284;28;19908;-45
2023/06/21 07:20:21;;;;;;;;;;;20.60;99.90;;;;;;5095058;28;19909;-45
2023/06/21 07:22:46;;;;;;;;;;;20.60;99.90;;;;;;5109582;28;19954;-46
2023/06/21 07:25:12;;;;;;;;;;;20.70;99.90;;;;;;5103259;28;20374;-44
2023/06/21 07:27:37;;;;;;;;;;;20.70;99.90;;;;;;5111328;28;19967;-44
2023/06/21 07:30:05;;;;;;;;;;;20.70;99.90;;;;;;5097012;28;19916;-44
2023/06/21 07:32:30;;;;;;;;;;;20.80;99.90;;;;;;5113860;28;19924;-44
2023/06/21 07:34:57;;;;;;;;;;;20.90;99.90;;;;;;5115925;28;19981;-44
2023/06/21 07:37:23;;;;;;;;;;;20.90;99.90;;;;;;5115565;28;19967;-46
2023/06/21 07:39:49;;;;;;;;;;;21.00;99.90;;;;;;5115298;28;19970;-44
2023/06/21 07:42:14;;;;;;;;;;;21.00;99.90;;;;;;5115277;28;19912;-44
2023/06/21 07:44:39;;;;;;;;;;;21.00;99.90;;;;;;5115961;28;20007;-46
2023/06/21 07:47:05;;;;;;;;;;;21.10;99.90;;;;;;5115324;28;19908;-44
2023/06/21 07:49:30;;;;;;;;;;;21.10;99.90;;;;;;5116031;28;19924;-45
2023/06/21 07:51:56;;;;;;;;;;;21.20;99.90;;;;;;5115207;28;19914;-43
2023/06/21 07:54:21;;;;;;;;;;;21.30;99.90;;;;;;5099840;28;19923;-44
2023/06/21 07:56:47;;;;;;;;;;;21.30;99.90;;;;;;5099708;28;19994;-45
2023/06/21 07:59:13;;;;;;;;;;;21.40;99.90;;;;;;5115672;28;19915;-45
2023/06/21 08:01:38;;;;;;;;;;;21.40;99.90;;;;;;5115182;28;20292;-44
2023/06/21 08:04:03;;;;;;;;;;;21.50;99.90;;;;;;5115547;28;19907;-44
2023/06/21 08:06:29;;;;;;;;;;;21.60;99.90;;;;;;5115370;28;19990;-45
2023/06/21 08:08:54;;;;;;;;;;;21.60;99.90;;;;;;5114738;28;20398;-44
2023/06/21 08:11:20;;;;;;;;;;;21.70;99.90;;;;;;5115434;28;20353;-45
2023/06/21 08:13:46;;;;;;;;;;;21.80;99.90;;;;;;5115759;28;20045;-44
2023/06/21 08:16:11;;;;;;;;;;;21.90;99.90;;;;;;5115063;28;20342;-46
2023/06/21 08:18:37;;;;;;;;;;;21.90;99.90;;;;;;5115412;28;19915;-45
2023/06/21 08:21:05;;;;;;;;;;;22.00;99.90;;;;;;5115070;28;20421;-47
2023/06/21 08:23:31;;;;;;;;;;;22.00;99.90;;;;;;5114726;28;20377;-44
2023/06/21 08:25:56;;;;;;;;;;;22.20;99.90;;;;;;5115003;28;19908;-43
2023/06/21 08:28:22;;;;;;;;;;;22.30;99.90;;;;;;5115027;28;19915;-44
2023/06/21 08:30:47;;;;;;;;;;;22.30;99.90;;;;;;5114671;28;20246;-43
2023/06/21 08:33:13;;;;;;;;;;;22.40;99.90;;;;;;5111953;28;19919;-45
2023/06/21 08:35:38;;;;;;;;;;;22.40;99.90;;;;;;5105638;28;19955;-44
2023/06/21 08:38:04;;;;;;;;;;;22.50;99.90;;;;;;5094090;28;20355;-48
2023/06/21 08:40:33;;;;;;;;;;;22.60;99.90;;;;;;5111464;28;20431;-44
2023/06/21 08:42:58;;;;;;;;;;;22.60;99.90;;;;;;5114227;28;19919;-44
2023/06/21 08:45:24;;;;;;;;;;;22.70;99.90;;;;;;5114663;28;19912;-46
2023/06/21 08:47:53;;;;;;;;;;;22.80;99.90;;;;;;5114677;28;19922;-45
2023/06/21 08:50:19;;;;;;;;;;;22.80;99.90;;;;;;5113815;28;19922;-44
2023/06/21 08:52:46;;;;;;;;;;;22.90;99.90;;;;;;5114302;28;19919;-44
2023/06/21 08:55:13;;;;;;;;;;;23.00;99.90;;;;;;5114463;28;20006;-46
2023/06/21 08:57:41;;;;;;;;;;;23.10;99.90;;;;;;5113756;28;19954;-45
2023/06/21 09:00:09;;;;;;;;;;;23.30;99.90;;;;;;5113394;28;19912;-45
2023/06/21 09:02:53;;;;;;;;;;;23.50;99.90;;;;;;5114146;28;19915;-45
2023/06/21 09:05:23;;;;;;;;;;;23.60;99.90;;;;;;5113813;28;20027;-45
2023/06/21 09:07:49;;;;;;;;;;;23.70;99.90;;;;;;5102135;28;20293;-44
2023/06/21 09:10:16;;;;;;;;;;;23.70;99.90;;;;;;5112153;28;19912;-46
2023/06/21 09:12:43;;;;;;;;;;;23.70;99.90;;;;;;5113821;28;19909;-44
2023/06/21 09:15:08;;;;;;;;;;;23.70;99.90;;;;;;5114114;28;20361;-44
2023/06/21 09:17:35;;;;;;;;;;;23.60;99.90;;;;;;5104493;28;19908;-46
2023/06/21 09:20:02;;;;;;;;;;;23.60;99.90;;;;;;5093328;28;19908;-44
2023/06/21 09:22:28;;;;;;;;;;;23.50;99.90;;;;;;5093683;28;20363;-44
2023/06/21 09:24:54;;;;;;;;;;;23.50;99.90;;;;;;5098596;28;19908;-45
2023/06/21 09:27:19;;;;;;;;;;;23.60;99.90;;;;;;5113980;28;19977;-45
2023/06/21 09:29:45;;;;;;;;;;;23.70;99.90;;;;;;5113916;28;19912;-44
2023/06/21 09:32:10;;;;;;;;;;;23.80;99.90;;;;;;5113453;28;19912;-44
2023/06/21 09:34:36;;;;;;;;;;;24.00;99.90;;;;;;5114082;28;19943;-45
2023/06/21 09:37:01;;;;;;;;;;;24.10;99.90;;;;;;5113703;28;19953;-46
2023/06/21 09:39:28;;;;;;;;;;;24.20;99.90;;;;;;5113531;28;19915;-44
2023/06/21 09:41:54;;;;;;;;;;;24.20;99.90;;;;;;5113525;28;19908;-45
2023/06/21 09:44:23;;;;;;;;;;;24.20;99.90;;;;;;5113710;28;19965;-46
2023/06/21 09:46:48;;;;;;;;;;;24.20;99.90;;;;;;5112869;28;20354;-45
2023/06/21 09:49:16;;;;;;;;;;;24.20;99.90;;;;;;5113412;28;19963;-46
2023/06/21 09:51:43;;;;;;;;;;;24.10;99.90;;;;;;5113662;28;19912;-45
2023/06/21 09:54:08;;;;;;;;;;;24.00;99.90;;;;;;5113094;28;20247;-45
2023/06/21 09:56:35;;;;;;;;;;;24.00;99.90;;;;;;5114173;28;19915;-45
2023/06/21 09:59:01;;;;;;;;;;;23.90;99.90;;;;;;5113451;28;20265;-45
2023/06/21 10:01:37;;;;;;;;;;;24.00;99.90;;;;;;5112996;28;19912;-45
2023/06/21 10:04:08;;;;;;;;;;;24.10;99.90;;;;;;5113760;28;19907;-46
2023/06/21 10:06:33;;;;;;;;;;;24.20;99.90;;;;;;5113596;28;19908;-44
2023/06/21 10:08:59;;;;;;;;;;;24.20;99.90;;;;;;5098822;28;19930;-44
2023/06/21 10:11:25;;;;;;;;;;;24.20;99.90;;;;;;5095984;28;20362;-44
2023/06/21 10:13:53;;;;;;;;;;;24.20;99.90;;;;;;5108052;28;19912;-46
2023/06/21 10:16:20;;;;;;;;;;;24.20;99.90;;;;;;5109387;28;19943;-44
2023/06/21 10:18:47;;;;;;;;;;;24.20;99.90;;;;;;5096786;28;20051;-44
2023/06/21 10:21:14;;;;;;;;;;;24.10;99.90;;;;;;5095127;28;19982;-44
2023/06/21 10:23:41;;;;;;;;;;;24.00;99.90;;;;;;5109530;28;19908;-45
2023/06/21 10:26:12;;;;;;;;;;;24.10;99.90;;;;;;5112938;28;19912;-45
2023/06/21 10:28:39;;;;;;;;;;;24.10;99.90;;;;;;5100793;28;19920;-45
2023/06/21 10:31:07;;;;;;;;;;;24.00;99.90;;;;;;5093036;28;19912;-44
2023/06/21 10:33:33;;;;;;;;;;;24.00;99.90;;;;;;5093139;28;19915;-44
2023/06/21 10:36:04;;;;;;;;;;;23.90;99.90;;;;;;5096605;28;19965;-46
2023/06/21 10:38:32;;;;;;;;;;;23.80;99.90;;;;;;5113074;28;19965;-43
2023/06/21 10:40:59;;;;;;;;;;;23.90;99.90;;;;;;5113601;28;19907;-46
2023/06/21 10:43:24;;;;;;;;;;;24.10;99.90;;;;;;5112685;28;20350;-44
2023/06/21 10:45:50;;;;;;;;;;;24.20;99.90;;;;;;5106774;28;19951;-44
2023/06/21 10:48:16;;;;;;;;;;;24.50;99.90;;;;;;5110521;28;20313;-44
2023/06/21 10:50:42;;;;;;;;;;;24.70;99.90;;;;;;5103286;28;20006;-45
2023/06/21 10:53:08;;;;;;;;;;;24.80;99.90;;;;;;5100666;28;19907;-44
2023/06/21 10:55:34;;;;;;;;;;;24.90;99.90;;;;;;5109056;28;19915;-44
2023/06/21 10:58:00;;;;;;;;;;;25.10;99.90;;;;;;5092187;28;19908;-45
2023/06/21 11:00:26;;;;;;;;;;;25.20;99.90;;;;;;5096077;28;19912;-44
2023/06/21 11:02:53;;;;;;;;;;;25.30;99.90;;;;;;5116797;28;19915;-45
2023/06/21 11:05:19;;;;;;;;;;;25.40;99.90;;;;;;5111362;28;20292;-45
2023/06/21 11:07:46;;;;;;;;;;;25.40;99.90;;;;;;5101561;28;19927;-44
2023/06/21 11:10:12;;;;;;;;;;;25.60;99.90;;;;;;5098892;28;19916;-44
2023/06/21 11:12:37;;;;;;;;;;;25.60;99.90;;;;;;5100162;28;19912;-44
2023/06/21 11:15:05;;;;;;;;;;;25.60;99.90;;;;;;5114080;28;19912;-44
2023/06/21 11:17:34;;;;;;;;;;;25.70;99.90;;;;;;5114565;28;19919;-45
2023/06/21 11:20:17;;;;;;;;;;;25.60;99.90;;;;;;5114797;28;19912;-44
2023/06/21 11:22:53;;;;;;;;;;;25.70;99.90;;;;;;5106356;28;19919;-44
2023/06/21 11:25:19;;;;;;;;;;;25.60;99.90;;;;;;5105077;27;19919;-45
2023/06/21 11:28:04;;;;;;;;;;;25.60;99.90;;;;;;5098543;28;20162;-45
2023/06/21 11:30:31;;;;;;;;;;;25.50;99.90;;;;;;5099610;28;20011;-45
2023/06/21 11:32:57;;;;;;;;;;;25.60;99.90;;;;;;5098812;28;19966;-45
2023/06/21 11:35:35;;;;;;;;;;;25.60;99.90;;;;;;5099428;28;19920;-45
2023/06/21 11:38:01;;;;;;;;;;;25.70;99.90;;;;;;5111570;28;20297;-45
2023/06/21 11:40:27;;;;;;;;;;;26.00;99.90;;;;;;5114615;28;19911;-44
2023/06/21 11:42:53;;;;;;;;;;;26.10;99.90;;;;;;5112954;28;19973;-45
2023/06/21 11:45:21;;;;;;;;;;;26.10;99.90;;;;;;5114779;28;19918;-49
2023/06/21 11:48:02;;;;;;;;;;;26.20;99.90;;;;;;5113667;28;19966;-46
2023/06/21 11:50:34;;;;;;;;;;;26.20;99.90;;;;;;5097752;28;20301;-46
2023/06/21 11:53:18;;;;;;;;;;;26.30;99.90;;;;;;5103576;28;20003;-47
2023/06/21 11:55:48;;;;;;;;;;;26.30;99.90;;;;;;5107900;28;19920;-45
2023/06/21 11:58:14;;;;;;;;;;;26.10;99.90;;;;;;5102092;28;19958;-45
2023/06/21 12:00:40;;;;;;;;;;;26.10;99.90;;;;;;5110064;28;19912;-44
2023/06/21 12:03:06;;;;;;;;;;;26.10;99.90;;;;;;5107986;28;19919;-45
2023/06/21 12:05:44;;;;;;;;;;;25.90;99.90;;;;;;5112305;28;19912;-45
2023/06/21 12:08:10;;;;;;;;;;;25.80;99.90;;;;;;5094388;28;19912;-45
2023/06/21 12:10:35;;;;;;;;;;;25.80;99.90;;;;;;5095050;28;19914;-45
2023/06/21 12:13:05;;;;;;;;;;;25.70;99.90;;;;;;5101593;28;19954;-50
2023/06/21 12:15:30;;;;;;;;;;;25.60;99.90;;;;;;5093933;28;19973;-46
2023/06/21 12:17:56;;;;;;;;;;;25.60;99.90;;;;;;5097540;28;19911;-45
2023/06/21 12:20:21;;;;;;;;;;;25.60;99.90;;;;;;5101101;28;19960;-46
2023/06/21 12:22:47;;;;;;;;;;;25.60;99.90;;;;;;5103638;28;20421;-45
2023/06/21 12:25:12;;;;;;;;;;;25.80;99.90;;;;;;5115226;28;19930;-46
2023/06/21 12:27:50;;;;;;;;;;;25.80;99.90;;;;;;5110753;28;19941;-46
2023/06/21 12:30:15;;;;;;;;;;;26.00;99.90;;;;;;5111077;28;20449;-44
2023/06/21 12:32:42;;;;;;;;;;;26.40;99.90;;;;;;5110997;28;20012;-47
2023/06/21 12:35:08;;;;;;;;;;;26.50;99.90;;;;;;5097258;28;19916;-44
2023/06/21 12:37:33;;;;;;;;;;;26.70;99.90;;;;;;5102269;28;20034;-45
2023/06/21 12:40:00;;;;;;;;;;;26.80;99.90;;;;;;5103184;28;19912;-44
2023/06/21 12:42:29;;;;;;;;;;;27.00;99.90;;;;;;5111556;28;20370;-45
2023/06/21 12:44:58;;;;;;;;;;;26.90;99.90;;;;;;5101627;28;19912;-46
2023/06/21 12:47:23;;;;;;;;;;;26.90;99.90;;;;;;5112371;28;20362;-45
2023/06/21 12:49:48;;;;;;;;;;;27.00;99.90;;;;;;5108564;28;19941;-47
2023/06/21 12:52:14;;;;;;;;;;;26.80;99.90;;;;;;5109316;28;19915;-45
2023/06/21 12:54:53;;;;;;;;;;;26.70;99.90;;;;;;5114295;28;19912;-46
2023/06/21 12:57:24;;;;;;;;;;;26.90;99.90;;;;;;5110394;28;19934;-45
2023/06/21 12:59:49;;;;;;;;;;;26.90;99.90;;;;;;5114595;28;19919;-45
2023/06/21 13:02:15;;;;;;;;;;;26.80;99.90;;;;;;5107406;28;19912;-43
2023/06/21 13:04:45;;;;;;;;;;;26.70;99.90;;;;;;5109659;28;19919;-45
2023/06/21 13:07:10;;;;;;;;;;;26.80;99.90;;;;;;5110464;28;19908;-44
2023/06/21 13:09:36;;;;;;;;;;;26.90;99.90;;;;;;5113225;28;19915;-46
2023/06/21 13:12:01;;;;;;;;;;;26.70;99.90;;;;;;5112251;28;19916;-45
2023/06/21 13:14:27;;;;;;;;;;;27.00;99.90;;;;;;5112908;28;20373;-45
2023/06/21 13:16:52;;;;;;;;;;;27.60;99.90;;;;;;5112518;28;20285;-47
2023/06/21 13:19:18;;;;;;;;;;;28.10;99.50;;;;;;5113720;28;20025;-45
2023/06/21 13:21:43;;;;;;;;;;;28.20;99.90;;;;;;5112685;28;19908;-45
2023/06/21 13:24:09;;;;;;;;;;;28.00;99.90;;;;;;5112249;28;19955;-44
2023/06/21 13:26:34;;;;;;;;;;;27.70;99.50;;;;;;5112790;28;19915;-45
2023/06/21 13:29:00;;;;;;;;;;;27.40;99.90;;;;;;5108704;28;20350;-45
2023/06/21 13:31:25;;;;;;;;;;;27.70;99.90;;;;;;5108355;28;19919;-46
2023/06/21 13:33:52;;;;;;;;;;;27.80;99.90;;;;;;5113379;28;19915;-43
2023/06/21 13:36:17;;;;;;;;;;;28.20;99.40;;;;;;5113701;28;19908;-46
2023/06/21 13:38:43;;;;;;;;;;;28.20;98.80;;;;;;5113043;28;20014;-44
2023/06/21 13:41:08;;;;;;;;;;;28.10;99.00;;;;;;5113826;28;20541;-44
2023/06/21 13:43:34;;;;;;;;;;;28.30;99.40;;;;;;5113880;28;20383;-45
2023/06/21 13:45:59;;;;;;;;;;;28.60;96.10;;;;;;5113444;28;20401;-45
2023/06/21 13:48:25;;;;;;;;;;;28.90;99.00;;;;;;5113610;28;19916;-44
2023/06/21 13:50:51;;;;;;;;;;;28.80;99.40;;;;;;5114092;28;19987;-45
2023/06/21 13:53:17;;;;;;;;;;;28.30;98.10;;;;;;5112868;28;19912;-46
2023/06/21 13:55:43;;;;;;;;;;;28.10;99.90;;;;;;5113856;28;19915;-46
2023/06/21 13:58:08;;;;;;;;;;;28.00;98.90;;;;;;5113675;28;19958;-43
2023/06/21 14:00:34;;;;;;;;;;;27.80;99.90;;;;;;5113103;28;19908;-44
2023/06/21 14:02:59;;;;;;;;;;;27.70;98.70;;;;;;5113626;28;19919;-47
2023/06/21 14:05:24;;;;;;;;;;;28.00;99.90;;;;;;5078117;28;20387;-47
2023/06/21 14:07:50;;;;;;;;;;;27.80;97.90;;;;;;5102355;28;19951;-45
2023/06/21 14:10:16;;;;;;;;;;;28.10;99.20;;;;;;5105814;28;19934;-45
2023/06/21 14:12:42;;;;;;;;;;;28.60;99.60;;;;;;5113371;28;19912;-45